sensor_id;sensor_type;location;lat;lon;timestamp;P1;durP1;ratioP1;P2;durP2;ratioP2
31754;SDS011;18325;52.018;4.726;2022-11-15T00:02:21;37.57;;;14.43;;
31754;SDS011;18325;52.018;4.726;2022-11-15T00:04:47;40.23;;;16.43;;
31754;SDS011;18325;52.018;4.726;2022-11-15T00:07:13;44.40;;;16.50;;
31754;SDS011;18325;52.018;4.726;2022-11-15T00:09:40;41.43;;;15.47;;
31754;SDS011;18325;52.018;4.726;2022-11-15T00:12:06;41.73;;;16.40;;
31754;SDS011;18325;52.018;4.726;2022-11-15T00:14:33;39.00;;;15.30;;
31754;SDS011;18325;52.018;4.726;2022-11-15T00:17:00;40.67;;;15.83;;
31754;SDS011;18325;52.018;4.726;2022-11-15T00:19:27;40.07;;;16.20;;
31754;SDS011;18325;52.018;4.726;2022-11-15T00:21:54;31.80;;;14.13;;
31754;SDS011;18325;52.018;4.726;2022-11-15T00:24:20;45.60;;;16.50;;
31754;SDS011;18325;52.018;4.726;2022-11-15T00:26:46;37.43;;;15.37;;
31754;SDS011;18325;52.018;4.726;2022-11-15T00:29:13;40.70;;;16.20;;
31754;SDS011;18325;52.018;4.726;2022-11-15T00:31:40;44.50;;;15.20;;
31754;SDS011;18325;52.018;4.726;2022-11-15T00:34:08;40.17;;;16.47;;
31754;SDS011;18325;52.018;4.726;2022-11-15T00:36:35;36.53;;;16.10;;
31754;SDS011;18325;52.018;4.726;2022-11-15T00:39:03;43.00;;;16.70;;
31754;SDS011;18325;52.018;4.726;2022-11-15T00:41:29;44.03;;;16.97;;
31754;SDS011;18325;52.018;4.726;2022-11-15T00:43:56;37.87;;;15.87;;
31754;SDS011;18325;52.018;4.726;2022-11-15T00:46:22;38.80;;;16.23;;
31754;SDS011;18325;52.018;4.726;2022-11-15T00:48:49;48.80;;;16.03;;
31754;SDS011;18325;52.018;4.726;2022-11-15T00:51:16;39.93;;;14.43;;
31754;SDS011;18325;52.018;4.726;2022-11-15T00:53:43;41.97;;;16.10;;
31754;SDS011;18325;52.018;4.726;2022-11-15T00:56:09;43.97;;;16.97;;
31754;SDS011;18325;52.018;4.726;2022-11-15T00:58:36;50.43;;;16.60;;
31754;SDS011;18325;52.018;4.726;2022-11-15T01:01:06;43.37;;;16.43;;
31754;SDS011;18325;52.018;4.726;2022-11-15T01:03:33;47.03;;;17.50;;
31754;SDS011;18325;52.018;4.726;2022-11-15T01:06:00;41.40;;;16.00;;
31754;SDS011;18325;52.018;4.726;2022-11-15T01:08:28;39.17;;;15.87;;
31754;SDS011;18325;52.018;4.726;2022-11-15T01:10:59;45.30;;;16.83;;
31754;SDS011;18325;52.018;4.726;2022-11-15T01:13:28;45.57;;;18.00;;
31754;SDS011;18325;52.018;4.726;2022-11-15T01:15:56;57.17;;;17.83;;
31754;SDS011;18325;52.018;4.726;2022-11-15T01:18:22;40.87;;;15.07;;
31754;SDS011;18325;52.018;4.726;2022-11-15T01:20:48;50.90;;;17.20;;
31754;SDS011;18325;52.018;4.726;2022-11-15T01:23:15;41.50;;;17.17;;
31754;SDS011;18325;52.018;4.726;2022-11-15T01:25:43;48.33;;;15.97;;
31754;SDS011;18325;52.018;4.726;2022-11-15T01:28:09;53.40;;;18.03;;
31754;SDS011;18325;52.018;4.726;2022-11-15T01:30:36;40.23;;;16.10;;
31754;SDS011;18325;52.018;4.726;2022-11-15T01:33:02;45.63;;;17.37;;
31754;SDS011;18325;52.018;4.726;2022-11-15T01:35:29;50.40;;;15.13;;
31754;SDS011;18325;52.018;4.726;2022-11-15T01:37:55;53.40;;;17.27;;
31754;SDS011;18325;52.018;4.726;2022-11-15T01:40:22;53.43;;;17.50;;
31754;SDS011;18325;52.018;4.726;2022-11-15T01:42:52;41.50;;;18.20;;
31754;SDS011;18325;52.018;4.726;2022-11-15T01:45:18;46.43;;;17.53;;
31754;SDS011;18325;52.018;4.726;2022-11-15T01:47:46;46.73;;;18.80;;
31754;SDS011;18325;52.018;4.726;2022-11-15T01:50:16;45.03;;;15.73;;
31754;SDS011;18325;52.018;4.726;2022-11-15T01:52:45;41.87;;;16.07;;
31754;SDS011;18325;52.018;4.726;2022-11-15T01:55:13;50.93;;;16.90;;
31754;SDS011;18325;52.018;4.726;2022-11-15T01:57:42;59.50;;;17.37;;
31754;SDS011;18325;52.018;4.726;2022-11-15T02:00:12;43.40;;;18.30;;
31754;SDS011;18325;52.018;4.726;2022-11-15T02:02:39;40.97;;;16.27;;
31754;SDS011;18325;52.018;4.726;2022-11-15T02:05:06;48.67;;;16.37;;
31754;SDS011;18325;52.018;4.726;2022-11-15T02:07:34;50.50;;;17.70;;
31754;SDS011;18325;52.018;4.726;2022-11-15T02:10:02;36.33;;;17.47;;
31754;SDS011;18325;52.018;4.726;2022-11-15T02:12:32;50.13;;;17.30;;
31754;SDS011;18325;52.018;4.726;2022-11-15T02:14:59;38.23;;;16.00;;
31754;SDS011;18325;52.018;4.726;2022-11-15T02:17:31;43.30;;;16.63;;
31754;SDS011;18325;52.018;4.726;2022-11-15T02:23:30;39.00;;;15.67;;
31754;SDS011;18325;52.018;4.726;2022-11-15T02:26:07;43.47;;;16.43;;
31754;SDS011;18325;52.018;4.726;2022-11-15T02:28:45;50.43;;;16.30;;
31754;SDS011;18325;52.018;4.726;2022-11-15T02:31:19;39.33;;;15.13;;
31754;SDS011;18325;52.018;4.726;2022-11-15T02:33:53;45.67;;;17.00;;
31754;SDS011;18325;52.018;4.726;2022-11-15T02:36:25;39.57;;;16.30;;
31754;SDS011;18325;52.018;4.726;2022-11-15T02:39:00;50.00;;;17.17;;
31754;SDS011;18325;52.018;4.726;2022-11-15T02:41:30;42.47;;;15.57;;
31754;SDS011;18325;52.018;4.726;2022-11-15T02:43:59;42.63;;;16.90;;
31754;SDS011;18325;52.018;4.726;2022-11-15T02:46:30;34.53;;;14.83;;
31754;SDS011;18325;52.018;4.726;2022-11-15T02:49:16;45.70;;;16.77;;
31754;SDS011;18325;52.018;4.726;2022-11-15T02:51:44;50.03;;;16.83;;
31754;SDS011;18325;52.018;4.726;2022-11-15T02:54:12;39.33;;;16.97;;
31754;SDS011;18325;52.018;4.726;2022-11-15T02:56:40;35.47;;;15.43;;
31754;SDS011;18325;52.018;4.726;2022-11-15T02:59:11;41.97;;;16.73;;
31754;SDS011;18325;52.018;4.726;2022-11-15T03:01:53;30.90;;;14.37;;
31754;SDS011;18325;52.018;4.726;2022-11-15T03:04:27;36.87;;;15.40;;
31754;SDS011;18325;52.018;4.726;2022-11-15T03:07:00;32.30;;;16.27;;
31754;SDS011;18325;52.018;4.726;2022-11-15T03:09:32;42.80;;;16.27;;
31754;SDS011;18325;52.018;4.726;2022-11-15T03:12:02;40.67;;;16.70;;
31754;SDS011;18325;52.018;4.726;2022-11-15T03:14:32;34.90;;;16.37;;
31754;SDS011;18325;52.018;4.726;2022-11-15T03:17:04;37.73;;;16.57;;
31754;SDS011;18325;52.018;4.726;2022-11-15T03:19:34;43.10;;;18.10;;
31754;SDS011;18325;52.018;4.726;2022-11-15T03:22:03;33.60;;;15.77;;
31754;SDS011;18325;52.018;4.726;2022-11-15T03:24:31;45.50;;;17.53;;
31754;SDS011;18325;52.018;4.726;2022-11-15T03:27:00;37.87;;;15.37;;
31754;SDS011;18325;52.018;4.726;2022-11-15T03:29:28;37.83;;;15.43;;
31754;SDS011;18325;52.018;4.726;2022-11-15T03:31:57;38.03;;;16.33;;
31754;SDS011;18325;52.018;4.726;2022-11-15T03:34:28;33.23;;;15.73;;
31754;SDS011;18325;52.018;4.726;2022-11-15T03:36:55;40.17;;;16.63;;
31754;SDS011;18325;52.018;4.726;2022-11-15T03:39:22;41.20;;;15.67;;
31754;SDS011;18325;52.018;4.726;2022-11-15T03:41:50;33.17;;;15.23;;
31754;SDS011;18325;52.018;4.726;2022-11-15T03:44:25;33.73;;;15.10;;
31754;SDS011;18325;52.018;4.726;2022-11-15T03:47:00;37.53;;;17.37;;
31754;SDS011;18325;52.018;4.726;2022-11-15T03:49:31;35.17;;;14.47;;
31754;SDS011;18325;52.018;4.726;2022-11-15T03:51:59;32.87;;;13.50;;
31754;SDS011;18325;52.018;4.726;2022-11-15T03:54:26;27.10;;;14.33;;
31754;SDS011;18325;52.018;4.726;2022-11-15T03:56:52;26.33;;;12.83;;
31754;SDS011;18325;52.018;4.726;2022-11-15T04:00:00;25.70;;;13.30;;
31754;SDS011;18325;52.018;4.726;2022-11-15T04:02:27;30.00;;;15.63;;
31754;SDS011;18325;52.018;4.726;2022-11-15T04:04:55;32.03;;;14.03;;
31754;SDS011;18325;52.018;4.726;2022-11-15T04:07:29;26.27;;;13.43;;
31754;SDS011;18325;52.018;4.726;2022-11-15T04:09:56;26.63;;;13.17;;
31754;SDS011;18325;52.018;4.726;2022-11-15T04:12:28;29.47;;;13.77;;
31754;SDS011;18325;52.018;4.726;2022-11-15T04:15:13;32.03;;;13.43;;
31754;SDS011;18325;52.018;4.726;2022-11-15T04:17:40;28.70;;;13.20;;
31754;SDS011;18325;52.018;4.726;2022-11-15T04:20:11;24.83;;;12.87;;
31754;SDS011;18325;52.018;4.726;2022-11-15T04:22:57;23.47;;;12.10;;
31754;SDS011;18325;52.018;4.726;2022-11-15T04:25:42;24.80;;;11.97;;
31754;SDS011;18325;52.018;4.726;2022-11-15T04:28:09;25.40;;;13.27;;
31754;SDS011;18325;52.018;4.726;2022-11-15T04:30:36;19.07;;;11.83;;
31754;SDS011;18325;52.018;4.726;2022-11-15T04:33:04;23.73;;;11.97;;
31754;SDS011;18325;52.018;4.726;2022-11-15T04:35:32;26.53;;;13.20;;
31754;SDS011;18325;52.018;4.726;2022-11-15T04:38:00;23.80;;;11.70;;
31754;SDS011;18325;52.018;4.726;2022-11-15T04:40:25;27.67;;;11.83;;
31754;SDS011;18325;52.018;4.726;2022-11-15T04:42:52;28.50;;;13.00;;
31754;SDS011;18325;52.018;4.726;2022-11-15T04:45:19;22.57;;;12.27;;
31754;SDS011;18325;52.018;4.726;2022-11-15T04:47:48;20.37;;;11.73;;
31754;SDS011;18325;52.018;4.726;2022-11-15T04:50:15;21.13;;;11.10;;
31754;SDS011;18325;52.018;4.726;2022-11-15T04:52:49;20.50;;;10.73;;
31754;SDS011;18325;52.018;4.726;2022-11-15T04:55:17;20.80;;;10.70;;
31754;SDS011;18325;52.018;4.726;2022-11-15T04:57:43;22.07;;;10.27;;
31754;SDS011;18325;52.018;4.726;2022-11-15T05:00:11;17.87;;;9.67;;
31754;SDS011;18325;52.018;4.726;2022-11-15T05:02:39;22.27;;;10.93;;
31754;SDS011;18325;52.018;4.726;2022-11-15T05:05:23;20.63;;;8.97;;
31754;SDS011;18325;52.018;4.726;2022-11-15T05:07:51;20.10;;;9.87;;
31754;SDS011;18325;52.018;4.726;2022-11-15T05:10:18;19.37;;;9.20;;
31754;SDS011;18325;52.018;4.726;2022-11-15T05:12:46;20.87;;;10.33;;
31754;SDS011;18325;52.018;4.726;2022-11-15T05:17:22;19.30;;;9.77;;
31754;SDS011;18325;52.018;4.726;2022-11-15T05:18:37;16.67;;;8.87;;
31754;SDS011;18325;52.018;4.726;2022-11-15T05:21:05;24.73;;;10.30;;
31754;SDS011;18325;52.018;4.726;2022-11-15T05:23:33;19.73;;;10.90;;
31754;SDS011;18325;52.018;4.726;2022-11-15T05:26:00;16.37;;;10.13;;
31754;SDS011;18325;52.018;4.726;2022-11-15T05:28:26;23.20;;;10.23;;
31754;SDS011;18325;52.018;4.726;2022-11-15T05:30:53;16.23;;;9.47;;
31754;SDS011;18325;52.018;4.726;2022-11-15T05:33:26;22.60;;;9.57;;
31754;SDS011;18325;52.018;4.726;2022-11-15T05:35:54;19.67;;;9.13;;
31754;SDS011;18325;52.018;4.726;2022-11-15T05:38:23;16.07;;;9.73;;
31754;SDS011;18325;52.018;4.726;2022-11-15T05:40:51;16.53;;;9.07;;
31754;SDS011;18325;52.018;4.726;2022-11-15T05:43:18;14.83;;;8.60;;
31754;SDS011;18325;52.018;4.726;2022-11-15T05:45:44;16.63;;;8.53;;
31754;SDS011;18325;52.018;4.726;2022-11-15T05:48:11;16.07;;;8.57;;
31754;SDS011;18325;52.018;4.726;2022-11-15T05:50:38;21.53;;;9.53;;
31754;SDS011;18325;52.018;4.726;2022-11-15T05:53:23;14.97;;;8.23;;
31754;SDS011;18325;52.018;4.726;2022-11-15T05:55:52;13.47;;;7.17;;
31754;SDS011;18325;52.018;4.726;2022-11-15T06:01:06;14.63;;;7.13;;
31754;SDS011;18325;52.018;4.726;2022-11-15T06:03:35;14.80;;;7.23;;
31754;SDS011;18325;52.018;4.726;2022-11-15T06:06:01;16.30;;;7.83;;
31754;SDS011;18325;52.018;4.726;2022-11-15T06:08:28;15.37;;;7.40;;
31754;SDS011;18325;52.018;4.726;2022-11-15T06:10:56;13.37;;;6.80;;
31754;SDS011;18325;52.018;4.726;2022-11-15T06:13:28;10.87;;;6.43;;
31754;SDS011;18325;52.018;4.726;2022-11-15T06:15:55;24.20;;;10.60;;
31754;SDS011;18325;52.018;4.726;2022-11-15T06:18:21;53.63;;;23.43;;
31754;SDS011;18325;52.018;4.726;2022-11-15T06:20:48;36.87;;;17.30;;
31754;SDS011;18325;52.018;4.726;2022-11-15T06:23:14;29.67;;;14.30;;
31754;SDS011;18325;52.018;4.726;2022-11-15T06:25:50;23.60;;;10.07;;
31754;SDS011;18325;52.018;4.726;2022-11-15T06:28:18;9.97;;;6.23;;
31754;SDS011;18325;52.018;4.726;2022-11-15T06:30:44;12.40;;;7.33;;
31754;SDS011;18325;52.018;4.726;2022-11-15T06:33:14;13.83;;;7.13;;
31754;SDS011;18325;52.018;4.726;2022-11-15T06:35:40;13.40;;;5.70;;
31754;SDS011;18325;52.018;4.726;2022-11-15T06:38:13;10.60;;;5.90;;
31754;SDS011;18325;52.018;4.726;2022-11-15T06:40:42;10.77;;;5.57;;
31754;SDS011;18325;52.018;4.726;2022-11-15T06:43:09;10.90;;;5.47;;
31754;SDS011;18325;52.018;4.726;2022-11-15T06:45:37;9.37;;;5.33;;
31754;SDS011;18325;52.018;4.726;2022-11-15T06:48:04;12.37;;;5.97;;
31754;SDS011;18325;52.018;4.726;2022-11-15T06:50:31;10.53;;;6.07;;
31754;SDS011;18325;52.018;4.726;2022-11-15T06:53:00;11.43;;;5.10;;
31754;SDS011;18325;52.018;4.726;2022-11-15T06:55:27;11.93;;;6.03;;
31754;SDS011;18325;52.018;4.726;2022-11-15T06:57:53;16.53;;;6.60;;
31754;SDS011;18325;52.018;4.726;2022-11-15T07:00:20;12.27;;;5.90;;
31754;SDS011;18325;52.018;4.726;2022-11-15T07:03:00;50.97;;;20.47;;
31754;SDS011;18325;52.018;4.726;2022-11-15T07:05:41;71.53;;;30.53;;
31754;SDS011;18325;52.018;4.726;2022-11-15T07:08:18;25.20;;;10.30;;
31754;SDS011;18325;52.018;4.726;2022-11-15T07:23:08;10.50;;;6.17;;
31754;SDS011;18325;52.018;4.726;2022-11-15T07:25:35;7.93;;;4.90;;
31754;SDS011;18325;52.018;4.726;2022-11-15T07:28:02;8.47;;;4.80;;
31754;SDS011;18325;52.018;4.726;2022-11-15T07:30:29;17.37;;;5.30;;
31754;SDS011;18325;52.018;4.726;2022-11-15T07:32:59;10.80;;;4.83;;
31754;SDS011;18325;52.018;4.726;2022-11-15T07:35:35;10.90;;;4.60;;
31754;SDS011;18325;52.018;4.726;2022-11-15T07:38:02;11.93;;;5.30;;
31754;SDS011;18325;52.018;4.726;2022-11-15T07:40:31;9.43;;;5.77;;
31754;SDS011;18325;52.018;4.726;2022-11-15T08:19:32;13.70;;;6.63;;
31754;SDS011;18325;52.018;4.726;2022-11-15T08:21:59;11.90;;;6.60;;
31754;SDS011;18325;52.018;4.726;2022-11-15T08:24:25;13.07;;;6.90;;
31754;SDS011;18325;52.018;4.726;2022-11-15T08:26:52;10.30;;;6.83;;
31754;SDS011;18325;52.018;4.726;2022-11-15T08:29:19;10.27;;;5.87;;
31754;SDS011;18325;52.018;4.726;2022-11-15T08:34:41;11.90;;;5.90;;
31754;SDS011;18325;52.018;4.726;2022-11-15T08:37:08;10.10;;;6.03;;
31754;SDS011;18325;52.018;4.726;2022-11-15T08:39:35;10.10;;;6.00;;
31754;SDS011;18325;52.018;4.726;2022-11-15T08:42:02;14.77;;;6.30;;
31754;SDS011;18325;52.018;4.726;2022-11-15T08:44:38;11.97;;;5.77;;
31754;SDS011;18325;52.018;4.726;2022-11-15T08:47:05;11.73;;;6.00;;
31754;SDS011;18325;52.018;4.726;2022-11-15T08:49:31;9.27;;;5.23;;
31754;SDS011;18325;52.018;4.726;2022-11-15T08:51:59;13.00;;;6.07;;
31754;SDS011;18325;52.018;4.726;2022-11-15T08:54:28;9.87;;;4.97;;
31754;SDS011;18325;52.018;4.726;2022-11-15T08:56:56;13.17;;;5.00;;
31754;SDS011;18325;52.018;4.726;2022-11-15T08:59:22;9.83;;;5.03;;
31754;SDS011;18325;52.018;4.726;2022-11-15T09:01:49;17.03;;;5.87;;
31754;SDS011;18325;52.018;4.726;2022-11-15T09:04:16;11.83;;;5.03;;
31754;SDS011;18325;52.018;4.726;2022-11-15T09:06:42;13.73;;;5.90;;
31754;SDS011;18325;52.018;4.726;2022-11-15T09:15:00;11.67;;;6.00;;
31754;SDS011;18325;52.018;4.726;2022-11-15T09:20:49;11.27;;;5.53;;
31754;SDS011;18325;52.018;4.726;2022-11-15T09:23:16;10.07;;;5.57;;
31754;SDS011;18325;52.018;4.726;2022-11-15T09:25:43;15.17;;;6.17;;
31754;SDS011;18325;52.018;4.726;2022-11-15T09:28:11;10.27;;;5.87;;
31754;SDS011;18325;52.018;4.726;2022-11-15T09:30:37;15.47;;;6.20;;
31754;SDS011;18325;52.018;4.726;2022-11-15T09:33:07;14.07;;;6.13;;
31754;SDS011;18325;52.018;4.726;2022-11-15T09:35:35;9.20;;;5.57;;
31754;SDS011;18325;52.018;4.726;2022-11-15T09:38:01;10.37;;;5.50;;
31754;SDS011;18325;52.018;4.726;2022-11-15T09:43:53;9.07;;;5.40;;
31754;SDS011;18325;52.018;4.726;2022-11-15T09:46:28;7.50;;;5.37;;
31754;SDS011;18325;52.018;4.726;2022-11-15T09:49:00;12.43;;;5.43;;
31754;SDS011;18325;52.018;4.726;2022-11-15T09:51:28;10.10;;;4.30;;
31754;SDS011;18325;52.018;4.726;2022-11-15T09:53:57;12.07;;;4.53;;
31754;SDS011;18325;52.018;4.726;2022-11-15T09:56:47;7.77;;;4.33;;
31754;SDS011;18325;52.018;4.726;2022-11-15T09:59:26;8.23;;;4.40;;
31754;SDS011;18325;52.018;4.726;2022-11-15T10:02:00;8.33;;;3.97;;
31754;SDS011;18325;52.018;4.726;2022-11-15T10:11:35;9.47;;;3.73;;
31754;SDS011;18325;52.018;4.726;2022-11-15T10:20:22;6.70;;;4.00;;
31754;SDS011;18325;52.018;4.726;2022-11-15T10:22:50;6.57;;;3.90;;
31754;SDS011;18325;52.018;4.726;2022-11-15T10:25:19;10.83;;;3.80;;
31754;SDS011;18325;52.018;4.726;2022-11-15T10:34:12;7.20;;;4.13;;
31754;SDS011;18325;52.018;4.726;2022-11-15T10:40:24;5.97;;;3.30;;
31754;SDS011;18325;52.018;4.726;2022-11-15T10:43:13;9.93;;;3.67;;
31754;SDS011;18325;52.018;4.726;2022-11-15T10:45:42;10.40;;;2.90;;
31754;SDS011;18325;52.018;4.726;2022-11-15T10:48:22;8.10;;;3.30;;
31754;SDS011;18325;52.018;4.726;2022-11-15T10:57:38;9.17;;;2.70;;
31754;SDS011;18325;52.018;4.726;2022-11-15T11:00:26;9.83;;;2.93;;
31754;SDS011;18325;52.018;4.726;2022-11-15T11:06:04;5.37;;;3.10;;
31754;SDS011;18325;52.018;4.726;2022-11-15T11:11:20;4.97;;;2.37;;
31754;SDS011;18325;52.018;4.726;2022-11-15T11:13:48;4.20;;;2.17;;
31754;SDS011;18325;52.018;4.726;2022-11-15T11:19:18;5.27;;;2.43;;
31754;SDS011;18325;52.018;4.726;2022-11-15T11:21:55;5.23;;;2.37;;
31754;SDS011;18325;52.018;4.726;2022-11-15T11:24:29;6.50;;;2.23;;
31754;SDS011;18325;52.018;4.726;2022-11-15T11:27:03;6.63;;;1.77;;
31754;SDS011;18325;52.018;4.726;2022-11-15T11:29:47;3.13;;;1.80;;
31754;SDS011;18325;52.018;4.726;2022-11-15T11:32:28;5.10;;;2.00;;
31754;SDS011;18325;52.018;4.726;2022-11-15T11:38:29;7.37;;;2.20;;
31754;SDS011;18325;52.018;4.726;2022-11-15T11:41:19;2.30;;;1.50;;
31754;SDS011;18325;52.018;4.726;2022-11-15T11:43:52;2.67;;;1.53;;
31754;SDS011;18325;52.018;4.726;2022-11-15T11:46:38;3.80;;;1.60;;
31754;SDS011;18325;52.018;4.726;2022-11-15T11:49:15;5.13;;;1.60;;
31754;SDS011;18325;52.018;4.726;2022-11-15T11:51:45;4.33;;;1.60;;
31754;SDS011;18325;52.018;4.726;2022-11-15T11:54:17;10.27;;;1.57;;
31754;SDS011;18325;52.018;4.726;2022-11-15T11:56:47;5.00;;;1.30;;
31754;SDS011;18325;52.018;4.726;2022-11-15T11:59:17;2.13;;;1.33;;
31754;SDS011;18325;52.018;4.726;2022-11-15T12:05:09;2.67;;;1.20;;
31754;SDS011;18325;52.018;4.726;2022-11-15T12:07:38;2.87;;;1.20;;
31754;SDS011;18325;52.018;4.726;2022-11-15T12:10:20;5.30;;;1.67;;
31754;SDS011;18325;52.018;4.726;2022-11-15T12:13:07;6.17;;;1.73;;
31754;SDS011;18325;52.018;4.726;2022-11-15T12:15:39;3.83;;;1.17;;
31754;SDS011;18325;52.018;4.726;2022-11-15T12:18:08;4.27;;;1.37;;
31754;SDS011;18325;52.018;4.726;2022-11-15T12:20:40;2.87;;;1.30;;
31754;SDS011;18325;52.018;4.726;2022-11-15T12:23:11;3.40;;;0.90;;
31754;SDS011;18325;52.018;4.726;2022-11-15T12:25:42;4.27;;;1.00;;
31754;SDS011;18325;52.018;4.726;2022-11-15T12:28:52;5.50;;;0.73;;
31754;SDS011;18325;52.018;4.726;2022-11-15T12:31:27;6.47;;;1.10;;
31754;SDS011;18325;52.018;4.726;2022-11-15T12:34:02;3.73;;;1.27;;
31754;SDS011;18325;52.018;4.726;2022-11-15T12:52:58;0.90;;;0.87;;
31754;SDS011;18325;52.018;4.726;2022-11-15T12:56:15;5.37;;;1.03;;
31754;SDS011;18325;52.018;4.726;2022-11-15T12:58:48;1.90;;;0.70;;
31754;SDS011;18325;52.018;4.726;2022-11-15T13:04:22;4.83;;;1.10;;
31754;SDS011;18325;52.018;4.726;2022-11-15T13:10:31;1.43;;;0.90;;
31754;SDS011;18325;52.018;4.726;2022-11-15T13:18:55;5.17;;;0.83;;
31754;SDS011;18325;52.018;4.726;2022-11-15T13:21:27;3.33;;;1.10;;
31754;SDS011;18325;52.018;4.726;2022-11-15T13:43:46;2.40;;;0.90;;
31754;SDS011;18325;52.018;4.726;2022-11-15T13:46:15;3.87;;;0.80;;
31754;SDS011;18325;52.018;4.726;2022-11-15T13:48:44;2.00;;;0.80;;
31754;SDS011;18325;52.018;4.726;2022-11-15T13:54:31;2.43;;;0.77;;
31754;SDS011;18325;52.018;4.726;2022-11-15T14:00:26;2.27;;;0.77;;
31754;SDS011;18325;52.018;4.726;2022-11-15T14:02:56;2.00;;;0.70;;
31754;SDS011;18325;52.018;4.726;2022-11-15T14:08:28;5.67;;;0.70;;
31754;SDS011;18325;52.018;4.726;2022-11-15T14:11:07;1.53;;;1.00;;
31754;SDS011;18325;52.018;4.726;2022-11-15T14:13:36;1.43;;;0.77;;
31754;SDS011;18325;52.018;4.726;2022-11-15T14:29:47;1.63;;;0.63;;
31754;SDS011;18325;52.018;4.726;2022-11-15T14:32:15;3.70;;;0.80;;
31754;SDS011;18325;52.018;4.726;2022-11-15T14:34:46;3.40;;;0.80;;
31754;SDS011;18325;52.018;4.726;2022-11-15T14:37:23;3.10;;;0.80;;
31754;SDS011;18325;52.018;4.726;2022-11-15T14:43:12;3.23;;;0.90;;
31754;SDS011;18325;52.018;4.726;2022-11-15T14:45:57;3.27;;;1.13;;
31754;SDS011;18325;52.018;4.726;2022-11-15T14:51:45;1.10;;;0.70;;
31754;SDS011;18325;52.018;4.726;2022-11-15T15:06:57;4.30;;;1.30;;
31754;SDS011;18325;52.018;4.726;2022-11-15T15:20:18;1.60;;;0.73;;
31754;SDS011;18325;52.018;4.726;2022-11-15T15:33:38;2.40;;;0.87;;
31754;SDS011;18325;52.018;4.726;2022-11-15T15:40:16;0.93;;;0.83;;
31754;SDS011;18325;52.018;4.726;2022-11-15T15:42:45;1.00;;;0.90;;
31754;SDS011;18325;52.018;4.726;2022-11-15T15:53:36;4.73;;;1.20;;
31754;SDS011;18325;52.018;4.726;2022-11-15T16:08:12;4.17;;;1.10;;
31754;SDS011;18325;52.018;4.726;2022-11-15T16:10:45;2.63;;;1.00;;
31754;SDS011;18325;52.018;4.726;2022-11-15T16:16:43;3.40;;;1.33;;
31754;SDS011;18325;52.018;4.726;2022-11-15T16:19:09;5.10;;;0.93;;
31754;SDS011;18325;52.018;4.726;2022-11-15T16:22:09;5.73;;;1.40;;
31754;SDS011;18325;52.018;4.726;2022-11-15T16:24:35;1.63;;;1.00;;
31754;SDS011;18325;52.018;4.726;2022-11-15T16:27:24;1.17;;;1.03;;
31754;SDS011;18325;52.018;4.726;2022-11-15T16:29:50;3.07;;;1.47;;
31754;SDS011;18325;52.018;4.726;2022-11-15T16:32:17;1.60;;;1.17;;
31754;SDS011;18325;52.018;4.726;2022-11-15T16:44:51;5.77;;;1.43;;
31754;SDS011;18325;52.018;4.726;2022-11-15T16:47:26;1.43;;;1.20;;
31754;SDS011;18325;52.018;4.726;2022-11-15T16:49:53;3.43;;;1.53;;
31754;SDS011;18325;52.018;4.726;2022-11-15T16:52:19;5.07;;;1.70;;
31754;SDS011;18325;52.018;4.726;2022-11-15T16:54:46;1.60;;;1.20;;
31754;SDS011;18325;52.018;4.726;2022-11-15T17:00:03;2.40;;;1.30;;
31754;SDS011;18325;52.018;4.726;2022-11-15T17:02:30;1.97;;;1.40;;
31754;SDS011;18325;52.018;4.726;2022-11-15T17:04:57;2.60;;;1.50;;
31754;SDS011;18325;52.018;4.726;2022-11-15T17:07:24;2.20;;;1.60;;
31754;SDS011;18325;52.018;4.726;2022-11-15T17:09:51;5.23;;;1.40;;
31754;SDS011;18325;52.018;4.726;2022-11-15T17:12:17;16.60;;;8.40;;
31754;SDS011;18325;52.018;4.726;2022-11-15T17:16:03;5.70;;;3.30;;
31754;SDS011;18325;52.018;4.726;2022-11-15T17:18:00;2.53;;;1.83;;
31754;SDS011;18325;52.018;4.726;2022-11-15T17:20:27;3.17;;;1.83;;
31754;SDS011;18325;52.018;4.726;2022-11-15T17:25:29;16.70;;;7.70;;
31754;SDS011;18325;52.018;4.726;2022-11-15T17:28:02;19.47;;;8.90;;
31754;SDS011;18325;52.018;4.726;2022-11-15T17:31:05;3.33;;;2.50;;
31754;SDS011;18325;52.018;4.726;2022-11-15T17:33:34;1.87;;;1.60;;
31754;SDS011;18325;52.018;4.726;2022-11-15T17:36:01;4.43;;;1.90;;
31754;SDS011;18325;52.018;4.726;2022-11-15T17:38:35;2.27;;;1.60;;
31754;SDS011;18325;52.018;4.726;2022-11-15T17:41:05;4.50;;;1.70;;
31754;SDS011;18325;52.018;4.726;2022-11-15T17:43:34;3.40;;;2.00;;
31754;SDS011;18325;52.018;4.726;2022-11-15T17:46:03;1.67;;;1.57;;
31754;SDS011;18325;52.018;4.726;2022-11-15T17:48:30;2.70;;;1.90;;
31754;SDS011;18325;52.018;4.726;2022-11-15T17:56:21;6.13;;;2.20;;
31754;SDS011;18325;52.018;4.726;2022-11-15T17:58:51;2.67;;;2.00;;
31754;SDS011;18325;52.018;4.726;2022-11-15T18:01:19;3.73;;;2.00;;
31754;SDS011;18325;52.018;4.726;2022-11-15T18:03:50;8.17;;;2.60;;
31754;SDS011;18325;52.018;4.726;2022-11-15T18:06:18;4.43;;;2.47;;
31754;SDS011;18325;52.018;4.726;2022-11-15T18:08:46;2.43;;;1.97;;
31754;SDS011;18325;52.018;4.726;2022-11-15T18:11:20;5.53;;;2.40;;
31754;SDS011;18325;52.018;4.726;2022-11-15T18:13:48;2.53;;;1.80;;
31754;SDS011;18325;52.018;4.726;2022-11-15T18:16:16;5.83;;;2.50;;
31754;SDS011;18325;52.018;4.726;2022-11-15T18:18:44;2.30;;;1.93;;
31754;SDS011;18325;52.018;4.726;2022-11-15T18:21:13;4.87;;;2.70;;
31754;SDS011;18325;52.018;4.726;2022-11-15T18:23:42;5.23;;;3.03;;
31754;SDS011;18325;52.018;4.726;2022-11-15T18:26:11;6.53;;;2.27;;
31754;SDS011;18325;52.018;4.726;2022-11-15T18:28:39;9.40;;;3.57;;
31754;SDS011;18325;52.018;4.726;2022-11-15T18:31:11;12.67;;;6.27;;
31754;SDS011;18325;52.018;4.726;2022-11-15T18:33:40;7.57;;;3.87;;
31754;SDS011;18325;52.018;4.726;2022-11-15T18:36:11;7.37;;;4.13;;
31754;SDS011;18325;52.018;4.726;2022-11-15T18:38:40;4.83;;;2.87;;
31754;SDS011;18325;52.018;4.726;2022-11-15T18:41:07;4.23;;;2.97;;
31754;SDS011;18325;52.018;4.726;2022-11-15T18:43:35;4.30;;;2.90;;
31754;SDS011;18325;52.018;4.726;2022-11-15T18:46:02;6.33;;;3.47;;
31754;SDS011;18325;52.018;4.726;2022-11-15T18:48:29;6.17;;;3.50;;
31754;SDS011;18325;52.018;4.726;2022-11-15T18:50:59;4.73;;;2.93;;
31754;SDS011;18325;52.018;4.726;2022-11-15T18:53:28;7.93;;;3.33;;
31754;SDS011;18325;52.018;4.726;2022-11-15T18:56:13;4.60;;;3.10;;
31754;SDS011;18325;52.018;4.726;2022-11-15T18:58:41;5.37;;;3.23;;
31754;SDS011;18325;52.018;4.726;2022-11-15T19:01:09;4.47;;;2.93;;
31754;SDS011;18325;52.018;4.726;2022-11-15T19:03:39;7.50;;;3.63;;
31754;SDS011;18325;52.018;4.726;2022-11-15T19:06:09;5.70;;;3.37;;
31754;SDS011;18325;52.018;4.726;2022-11-15T19:08:40;4.93;;;2.93;;
31754;SDS011;18325;52.018;4.726;2022-11-15T19:11:08;5.50;;;3.60;;
31754;SDS011;18325;52.018;4.726;2022-11-15T19:16:24;4.77;;;3.47;;
31754;SDS011;18325;52.018;4.726;2022-11-15T19:18:51;5.57;;;3.93;;
31754;SDS011;18325;52.018;4.726;2022-11-15T19:21:19;6.63;;;4.07;;
31754;SDS011;18325;52.018;4.726;2022-11-15T19:24:01;5.03;;;3.63;;
31754;SDS011;18325;52.018;4.726;2022-11-15T19:26:29;6.90;;;3.60;;
31754;SDS011;18325;52.018;4.726;2022-11-15T19:28:56;29.57;;;14.40;;
31754;SDS011;18325;52.018;4.726;2022-11-15T19:31:24;8.23;;;6.30;;
31754;SDS011;18325;52.018;4.726;2022-11-15T19:33:52;11.43;;;4.83;;
31754;SDS011;18325;52.018;4.726;2022-11-15T19:36:19;5.87;;;3.60;;
31754;SDS011;18325;52.018;4.726;2022-11-15T19:38:47;5.27;;;4.07;;